Huntsville, Texas
Current Conditions -  °F | °C
As of 2:20 PM on Friday 19 Dec 2014 (Local Time) from KUTS Reporting Station
Broken Clouds Broken Clouds  
Wind Chill: 13°   Ceiling: 1000
Heat Index: 13°   Visibility: 10mi
Dew Point: 11°   Wind: 7mph
Humidity: 84%   Direction: 360°N
Pressure: 30.05"   Gusts: NA
Location:  30.72°N, 95.55°W
Report Text: KUTS 192020Z AUTO 36006KT 10SM BKN010 BKN090 13/11 A3005 RMK AO2 CIG 007V013 T01330106
Loading
Personal Weather Stations






























Interactive Weather Map New forecast layout! Learn more

10-Day Weather Forecast

Advertisements
Track Severe Weather on mobile